Latest Weather Observations for Badgerys Creek

IDN60901

Issued at 11:11 am EST Monday 30 May 2016 (issued every 10 minutes, with the page automatically refreshed every 10 minutes)

About weather observations | Map of Sydney area stations | Latest observations for Sydney area | Other Formats
Station Details ID: 067108 Name: BADGERYS CREEK AWS Lat: -33.90 Lon: 150.73 Height: 81.2 m
Data from the previous 72 hours. | See also: Recent months at Badgerys Creek
Date/Time
EST
Tmp

°C
App
Tmp
°C
Dew
Point
°C
Rel
Hum
%
Delta-T

°C
Wind Press
QNH
hPa
Press
MSL
hPa
Rain
since
9 am
mm
Dir
 
Spd
km/h
Gust
km/h
Spd
kts
Gust
kts
30/11:00am 14.9 11.9 4.3 49 4.9 WSW 9 13 5 7 1025.6 1025.6 0.0
30/10:30am 13.4 10.8 4.3 54 4.2 WSW 7 13 4 7 1025.9 1025.9 0.0
30/10:00am 11.8 8.4 3.8 58 3.6 WSW 11 15 6 8 1026.1 1026.1 0.0
30/09:30am 10.5 7.1 3.8 63 3.0 WSW 11 17 6 9 1026.1 1026.1 0.0
30/09:00am 9.0 5.2 3.8 70 2.3 WSW 13 17 7 9 1025.8 1025.8 0.0
30/08:30am 7.4 4.8 4.4 81 1.3 WSW 7 9 4 5 1025.6 1025.6 0.0
30/08:00am 4.0 1.6 2.2 88 0.7 SW 4 6 2 3 1025.4 1025.4 0.0
30/07:30am 2.3 0.3 0.0 85 0.9 CALM 0 0 0 0 1025.0 1025.0 0.0
30/07:00am 3.8 1.7 2.0 88 0.7 SW 2 2 1 1 1024.5 1024.5 0.0
30/06:30am 2.3 -0.8 0.2 86 0.8 SW 6 6 3 3 1024.0 1024.0 0.0
30/06:00am 4.3 2.7 2.3 87 0.8 CALM 0 0 0 0 1023.7 1023.7 0.0
30/05:30am 3.8 1.5 2.6 92 0.5 SW 4 4 2 2 1023.3 1023.3 0.0
30/05:00am 1.9 -1.0 1.5 97 0.2 SW 6 6 3 3 1023.0 1023.0 0.0
30/04:30am 2.1 -0.9 0.6 90 0.6 WSW 6 7 3 4 1022.6 1022.6 0.0
30/04:00am 1.9 -0.6 1.3 96 0.2 SW 4 7 2 4 1022.4 1022.4 0.0
30/03:30am 2.4 0.0 2.0 97 0.2 WSW 4 6 2 3 1022.3 1022.3 0.0
30/03:00am 2.6 -0.4 1.9 95 0.3 WSW 7 7 4 4 1022.2 1022.2 0.0
30/02:30am 3.2 0.4 -0.3 78 1.3 WSW 4 6 2 3 1022.1 1022.1 0.0
30/02:00am 3.6 1.2 2.1 90 0.6 WSW 4 6 2 3 1022.2 1022.2 0.0
30/01:30am 3.8 0.8 2.0 88 0.7 WSW 7 9 4 5 1022.0 1022.0 0.0
30/01:00am 3.7 0.6 1.4 85 0.9 WSW 7 9 4 5 1021.8 1021.8 0.0
30/12:30am 4.1 1.2 2.6 90 0.6 WSW 7 9 4 5 1021.6 1021.6 0.0
30/12:00am 4.3 1.2 1.5 82 1.1 WSW 7 7 4 4 1021.7 1021.7 0.0
 
Date/Time
EST
Tmp

°C
App
Tmp
°C
Dew
Point
°C
Rel
Hum
%
Delta-T

°C
Wind Press
QNH
hPa
Press
MSL
hPa
Rain
since
9 am
mm
Dir
 
Spd
km/h
Gust
km/h
Spd
kts
Gust
kts
29/11:30pm 6.8 4.1 2.9 76 1.6 SW 6 6 3 3 1021.6 1021.6 0.0
29/11:00pm 5.4 1.7 2.1 79 1.3 WSW 11 15 6 8 1021.4 1021.4 0.0
29/10:30pm 5.0 1.6 1.7 79 1.3 SW 9 11 5 6 1021.3 1021.3 0.0
29/10:00pm 7.3 5.6 2.0 69 2.2 CALM 0 0 0 0 1021.4 1021.4 0.0
29/09:30pm 7.7 6.2 3.0 72 2.0 CALM 0 0 0 0 1021.2 1021.1 0.0
29/09:00pm 8.1 5.2 2.8 69 2.2 WSW 7 9 4 5 1020.9 1020.8 0.0
29/08:30pm 8.1 5.2 2.6 68 2.3 WSW 7 11 4 6 1020.6 1020.5 0.0
29/08:00pm 9.1 5.8 2.2 62 2.9 SW 9 11 5 6 1020.2 1020.1 0.0
29/07:30pm 10.0 5.9 2.1 58 3.3 WSW 13 15 7 8 1019.9 1019.8 0.0
29/07:00pm 11.6 7.9 2.1 52 4.1 SSW 11 15 6 8 1019.4 1019.3 0.0
29/06:30pm 12.5 8.4 2.1 49 4.5 SW 13 15 7 8 1019.1 1019.0 0.0
29/06:00pm 12.9 8.3 1.6 46 4.9 SW 15 19 8 10 1018.6 1018.5 0.0
29/05:30pm 13.7 10.2 1.4 43 5.3 SSW 9 13 5 7 1018.2 1018.1 0.0
29/05:00pm 14.4 10.5 1.0 40 5.8 SW 11 19 6 10 1017.8 1017.7 0.0
29/04:30pm 16.3 11.9 0.4 34 6.9 SSW 13 19 7 10 1017.2 1017.2 0.0
29/04:00pm 17.8 13.9 0.9 32 7.5 SSW 11 15 6 8 1016.7 1016.7 0.0
29/03:30pm 18.9 14.4 0.0 28 8.3 WSW 13 19 7 10 1016.4 1016.4 0.0
29/03:00pm 19.1 14.8 0.7 29 8.2 SW 13 24 7 13 1016.1 1016.1 0.0
29/02:30pm 19.2 15.4 1.7 31 8.0 SW 11 19 6 10 1015.9 1015.9 0.0
29/02:00pm 18.5 15.4 1.5 32 7.7 SW 7 17 4 9 1016.0 1016.0 0.0
29/01:30pm 17.8 15.1 2.5 36 7.0 SW 6 15 3 8 1016.1 1016.1 0.0
29/01:00pm 17.7 14.8 2.8 37 6.9 SW 7 17 4 9 1016.2 1016.2 0.0
29/12:30pm 17.1 13.6 3.4 40 6.4 SSW 11 22 6 12 1016.5 1016.5 0.0
29/12:00pm 16.8 12.2 3.8 42 6.1 WSW 17 28 9 15 1016.7 1016.7 0.0
29/11:30am 16.0 11.0 3.8 44 5.7 SW 19 26 10 14 1016.9 1016.9 0.0
29/11:00am 15.8 11.0 4.5 47 5.3 WSW 19 28 10 15 1017.2 1017.2 0.0
29/10:30am 15.1 9.7 4.5 49 5.0 WSW 22 32 12 17 1017.6 1017.5 0.0
29/10:00am 14.3 8.9 4.3 51 4.6 SW 22 28 12 15 1017.6 1017.5 0.0
29/09:30am 13.3 9.7 5.0 57 3.9 WSW 13 20 7 11 1017.5 1017.4 0.0
29/09:00am 11.8 10.1 6.1 68 2.7 S 4 6 2 3 1017.2 1017.2 3.4
29/08:30am 10.3 8.6 6.1 75 2.0 WSW 4 4 2 2 1017.0 1017.0 3.4
29/08:00am 8.4 7.3 5.2 80 1.4 CALM 0 0 0 0 1016.7 1016.7 3.4
29/07:30am 5.4 3.8 2.6 82 1.1 CALM 0 0 0 0 1016.4 1016.4 3.4
29/07:00am 4.2 2.1 1.9 85 0.9 WSW 2 6 1 3 1016.0 1016.0 3.4
29/06:30am 4.4 2.0 1.9 84 1.0 NW 4 7 2 4 1015.6 1015.6 3.4
29/06:00am 4.7 2.0 2.4 85 0.9 NW 6 7 3 4 1015.5 1015.5 3.4
29/05:30am 4.5 2.7 1.4 80 1.2 CALM 0 0 0 0 1015.0 1015.0 3.4
29/05:00am 7.5 5.7 3.6 76 1.7 N 2 4 1 2 1014.7 1014.7 3.4
29/04:30am 7.0 4.2 2.1 71 2.0 WSW 6 9 3 5 1014.3 1014.3 3.4
29/04:00am 6.3 4.0 2.6 77 1.5 WNW 4 6 2 3 1014.1 1014.1 3.4
29/03:30am 7.8 5.6 3.1 72 2.0 WNW 4 7 2 4 1014.0 1014.0 3.4
29/03:00am 7.9 5.1 3.0 71 2.1 W 7 13 4 7 1013.9 1013.9 3.4
29/02:30am 7.5 5.2 3.0 73 1.9 S 4 6 2 3 1013.8 1013.8 3.4
29/02:00am 7.3 5.0 2.8 73 1.9 S 4 6 2 3 1013.6 1013.6 3.4
29/01:30am 8.5 6.3 3.1 69 2.3 S 4 7 2 4 1013.7 1013.7 3.4
29/01:00am 8.9 6.7 3.1 67 2.5 SSW 4 6 2 3 1013.4 1013.4 3.4
29/12:30am 8.7 5.5 3.1 68 2.4 SW 9 20 5 11 1013.2 1013.2 3.4
29/12:00am 9.3 6.5 3.3 66 2.6 WSW 7 11 4 6 1013.2 1013.2 3.4
 
Date/Time
EST
Tmp

°C
App
Tmp
°C
Dew
Point
°C
Rel
Hum
%
Delta-T

°C
Wind Press
QNH
hPa
Press
MSL
hPa
Rain
since
9 am
mm
Dir
 
Spd
km/h
Gust
km/h
Spd
kts
Gust
kts
28/11:30pm 10.0 6.8 3.1 62 3.0 WSW 9 15 5 8 1013.2 1013.2 3.4
28/11:00pm 10.7 7.2 3.5 61 3.2 SW 11 17 6 9 1012.9 1012.9 3.4
28/10:30pm 10.7 6.9 4.0 63 3.0 WSW 13 19 7 10 1012.5 1012.5 3.4
28/10:00pm 11.2 7.1 4.4 63 3.1 WSW 15 22 8 12 1012.4 1012.4 3.4
28/09:30pm 11.0 7.3 4.7 65 2.9 WSW 13 20 7 11 1012.0 1012.0 3.4
28/09:00pm 10.9 7.3 5.2 68 2.6 WSW 13 19 7 10 1011.8 1011.8 3.4
28/08:30pm 10.5 7.4 5.5 71 2.3 SW 11 17 6 9 1011.5 1011.5 3.4
28/08:00pm 10.7 7.6 5.5 70 2.4 WSW 11 19 6 10 1011.4 1011.4 3.4
28/07:30pm 10.4 7.3 5.4 71 2.3 WSW 11 19 6 10 1011.0 1011.0 3.4
28/07:00pm 9.8 6.2 5.2 73 2.1 WSW 13 17 7 9 1010.4 1010.3 3.4
28/06:30pm 11.0 8.3 5.5 69 2.5 WSW 9 11 5 6 1010.1 1010.0 3.4
28/06:00pm 11.3 7.5 5.6 68 2.7 WSW 15 20 8 11 1009.5 1009.4 3.4
28/05:30pm 12.4 8.6 6.0 65 3.0 SW 15 20 8 11 1009.1 1009.0 3.4
28/05:00pm 12.2 9.1 5.6 64 3.1 WSW 11 17 6 9 1008.3 1008.2 3.4
28/04:30pm 14.4 11.7 5.7 56 4.1 W 9 15 5 8 1007.5 1007.4 3.4
28/04:00pm 15.2 10.4 5.7 53 4.6 W 20 37 11 20 1007.2 1007.1 3.4
28/03:30pm 14.9 10.4 6.2 56 4.2 SW 19 32 10 17 1006.8 1006.7 3.4
28/03:00pm 15.3 14.8 10.7 74 2.5 WSW 4 9 2 5 1006.3 1006.2 3.4
28/02:30pm 14.1 13.5 10.3 78 2.0 ESE 4 7 2 4 1006.1 1006.0 3.4
28/02:00pm 13.1 13.0 12.0 93 0.6 NNW 4 7 2 4 1005.9 1005.8 3.4
28/01:30pm 11.9 12.0 11.6 98 0.2 NW 2 4 1 2 1005.8 1005.7 3.4
28/01:00pm 10.8 10.6 10.6 99 0.1 SSW 2 4 1 2 1006.0 1005.9 3.4
28/12:30pm 9.7 9.3 9.6 99 0.1 SSW 2 4 1 2 1006.1 1006.0 3.4
28/12:00pm 9.7 9.6 9.6 99 0.1 CALM 0 4 0 2 1006.3 1006.2 3.4
28/11:30am 9.0 7.6 8.9 99 0.0 SSW 6 11 3 6 1006.7 1006.6 3.4
28/11:00am 8.9 7.5 8.8 99 0.0 WSW 6 7 3 4 1007.0 1006.9 3.2
28/10:30am 8.3 6.7 8.2 99 0.0 W 6 6 3 3 1007.0 1006.9 3.2
28/10:00am 8.2 7.7 7.9 98 0.1 CALM 0 0 0 0 1007.1 1007.0 2.6
28/09:30am 8.1 7.1 7.5 96 0.3 W 2 4 1 2 1007.4 1007.3 1.2
28/09:00am 7.9 6.5 7.1 95 0.4 W 4 7 2 4 1007.5 1007.4 0.0
28/08:30am 7.5 5.5 6.4 93 0.5 W 6 7 3 4 1007.2 1007.1 0.0
28/08:00am 6.3 4.4 5.1 92 0.5 WSW 4 7 2 4 1007.2 1007.1 0.0
28/07:30am 5.7 4.1 4.7 93 0.4 WSW 2 6 1 3 1007.0 1006.9 0.0
28/07:00am 5.7 4.0 4.2 90 0.6 WSW 2 6 1 3 1007.1 1007.0 0.0
28/06:30am 5.4 3.6 3.7 89 0.7 WSW 2 2 1 1 1007.1 1007.0 0.0
28/06:00am 4.3 2.1 3.1 92 0.5 WSW 4 6 2 3 1006.8 1006.7 0.0
28/05:30am 2.6 0.4 0.8 88 0.7 NNW 2 7 1 4 1006.7 1006.6 0.0
28/05:00am 5.6 4.1 3.1 84 1.0 CALM 0 0 0 0 1006.9 1006.8 0.0
28/04:30am 3.9 1.3 0.9 81 1.2 WNW 4 6 2 3 1006.7 1006.6 0.0
28/04:00am 4.3 1.5 2.2 86 0.8 WNW 6 6 3 3 1006.9 1006.8 0.0
28/03:30am 5.6 3.6 2.1 78 1.4 N 2 4 1 2 1007.0 1006.9 0.0
28/03:00am 6.4 4.8 2.3 75 1.7 CALM 0 0 0 0 1006.8 1006.7 0.0
28/02:30am 5.9 3.4 1.4 73 1.8 W 4 7 2 4 1007.3 1007.2 0.0
28/02:00am 8.3 6.0 2.8 68 2.3 W 4 6 2 3 1007.5 1007.4 0.0
28/01:30am 6.5 4.1 2.0 73 1.8 W 4 6 2 3 1007.6 1007.5 0.0
28/01:00am 7.6 5.2 2.1 68 2.3 W 4 7 2 4 1007.7 1007.6 0.0
28/12:30am 8.8 6.1 2.6 65 2.6 WSW 6 7 3 4 1007.6 1007.5 0.0
28/12:00am 9.6 6.9 2.7 62 3.0 WSW 6 9 3 5 1007.8 1007.7 0.0
 
Date/Time
EST
Tmp

°C
App
Tmp
°C
Dew
Point
°C
Rel
Hum
%
Delta-T

°C
Wind Press
QNH
hPa
Press
MSL
hPa
Rain
since
9 am
mm
Dir
 
Spd
km/h
Gust
km/h
Spd
kts
Gust
kts
27/11:30pm 11.4 8.5 2.4 54 3.9 WNW 7 15 4 8 1007.9 1007.8 0.0
27/11:00pm 11.8 9.1 2.5 53 4.1 W 6 9 3 5 1007.8 1007.7 0.0
27/10:30pm 12.3 9.0 2.5 51 4.3 WNW 9 17 5 9 1007.7 1007.6 0.0
27/10:00pm 12.4 7.5 2.3 50 4.4 W 17 26 9 14 1007.5 1007.4 0.0
27/09:30pm 12.5 6.7 2.1 49 4.5 W 22 33 12 18 1007.4 1007.3 0.0
27/09:00pm 11.9 7.0 2.1 51 4.2 W 17 24 9 13 1007.5 1007.4 0.0
27/08:30pm 11.7 6.4 1.9 51 4.2 W 19 24 10 13 1007.0 1006.9 0.0
27/08:00pm 12.1 7.9 1.4 48 4.6 WSW 13 26 7 14 1006.9 1006.8 0.0
27/07:30pm 12.9 8.0 2.2 48 4.7 WSW 17 24 9 13 1006.5 1006.4 0.0
27/07:00pm 12.7 8.9 1.7 47 4.8 WSW 11 19 6 10 1006.2 1006.1 0.0
27/06:30pm 13.4 8.1 1.7 45 5.1 W 19 37 10 20 1005.4 1005.3 0.0
27/06:00pm 13.4 8.9 2.0 46 5.0 WSW 15 24 8 13 1004.8 1004.7 0.0
27/05:30pm 14.3 6.9 1.9 43 5.4 W 30 63 16 34 1004.0 1004.0 0.0
27/05:28pm 14.1 7.1 1.7 43 5.4 W 28 63 15 34 1004.0 1004.0 0.0
27/05:00pm 14.3 7.6 1.6 42 5.6 WSW 26 41 14 22 1003.6 1003.6 0.0
27/04:33pm 15.2 7.7 1.4 39 6.0 WSW 30 50 16 27 1003.2 1003.2 0.0
27/04:30pm 15.3 7.5 1.4 39 6.1 WSW 32 41 17 22 1003.2 1003.2 0.0
27/04:00pm 16.0 7.5 1.0 36 6.6 W 35 50 19 27 1002.8 1002.8 0.0
27/03:54pm 16.1 8.6 1.0 36 6.6 W 30 50 16 27 1002.7 1002.7 0.0
27/03:30pm 16.5 8.6 1.0 35 6.8 WSW 32 46 17 25 1002.6 1002.6 0.0
27/03:00pm 16.9 9.0 1.0 34 7.0 WSW 32 46 17 25 1002.5 1002.5 0.0
27/02:31pm 17.1 9.9 0.7 33 7.2 WSW 28 48 15 26 1002.0 1002.0 0.0
27/02:30pm 17.3 10.2 1.3 34 7.1 WSW 28 43 15 23 1002.1 1002.1 0.0
27/02:13pm 17.3 9.4 1.3 34 7.1 WSW 32 52 17 28 1002.2 1002.2 0.0
27/02:00pm 17.4 9.5 1.0 33 7.3 WSW 32 43 17 23 1002.0 1002.0 0.0
27/01:30pm 17.3 9.4 0.9 33 7.2 WSW 32 44 17 24 1002.1 1002.1 0.0
27/01:06pm 17.9 9.9 1.4 33 7.4 W 33 52 18 28 1002.1 1002.1 0.0
27/01:00pm 17.0 8.8 0.2 32 7.3 W 33 48 18 26 1002.1 1002.1 0.0
27/12:39pm 17.6 9.6 0.7 32 7.4 WSW 32 56 17 30 1002.1 1002.1 0.0
27/12:30pm 17.9 10.4 1.4 33 7.4 WSW 30 43 16 23 1002.2 1002.2 0.0
27/12:06pm 17.4 9.3 1.0 33 7.3 W 33 54 18 29 1002.4 1002.4 0.0
27/12:00pm 17.7 9.2 1.2 33 7.4 W 35 52 19 28 1002.5 1002.5 0.0
27/11:41am 17.6 10.2 2.0 35 7.1 W 30 48 16 26 1002.7 1002.7 0.0
27/11:30am 17.1 9.6 1.1 34 7.1 W 30 43 16 23 1002.8 1002.8 0.0
27/11:23am 17.6 10.2 2.0 35 7.1 W 30 48 16 26 1002.8 1002.8 0.0

Latest Capital City Observations: Canberra | Sydney | Melbourne | Brisbane | Adelaide | Perth | Hobart | Darwin

Other Formats:

Comma delimited format used in spreadsheet applications
http://www.bom.gov.au/fwo/IDN60901/IDN60901.94752.axf

JavaScript Object Notation format (JSON) in row-major order
http://www.bom.gov.au/fwo/IDN60901/IDN60901.94752.json